Time;durP1;ratioP1;P1;durP2;ratioP2;P2;SDS_P1;SDS_P2;PMS_P1;PMS_P2;Temp;Humidity;BMP_temperature;BMP_pressure;BME280_temperature;BME280_humidity;BME280_pressure;Samples;Min_cycle;Max_cycle;Signal;HPM_P1;HPM_P2
2023/01/03 00:01:08;;;;;;;14.48;13.05;;;22.70;78.90;;;;;;6158749;28;89583;-67
2023/01/03 00:04:10;;;;;;;13.98;12.57;;;22.70;78.90;;;;;;6145919;28;87013;-67
2023/01/03 00:07:12;;;;;;;14.20;12.70;;;22.70;78.90;;;;;;6168060;28;90109;-67
2023/01/03 00:10:14;;;;;;;13.20;11.88;;;22.70;78.90;;;;;;6156933;28;89046;-67
2023/01/03 00:13:18;;;;;;;13.95;12.55;;;22.70;78.90;;;;;;6157454;28;87980;-67
2023/01/03 00:16:21;;;;;;;15.32;12.50;;;22.70;79.00;;;;;;6157083;28;87955;-67
2023/01/03 00:19:24;;;;;;;14.23;12.82;;;22.60;78.90;;;;;;6156994;28;88913;-67
2023/01/03 00:22:26;;;;;;;14.63;13.07;;;22.60;79.00;;;;;;6160106;28;89106;-65
2023/01/03 00:25:29;;;;;;;13.77;12.35;;;22.60;79.90;;;;;;6157221;28;89130;-65
2023/01/03 00:28:33;;;;;;;14.60;12.43;;;22.60;80.10;;;;;;6157257;28;88398;-66
2023/01/03 00:31:36;;;;;;;13.30;11.90;;;22.60;79.80;;;;;;6155331;28;89031;-66
2023/01/03 00:34:38;;;;;;;13.90;12.50;;;22.60;80.00;;;;;;6156317;28;88155;-65
2023/01/03 00:37:40;;;;;;;13.60;12.18;;;22.70;80.10;;;;;;6156112;28;90475;-67
2023/01/03 00:40:42;;;;;;;14.30;12.63;;;22.60;81.10;;;;;;6155123;28;89520;-68
2023/01/03 00:43:49;;;;;;;13.95;11.88;;;22.60;80.30;;;;;;6155583;28;89199;-67
2023/01/03 00:46:51;;;;;;;13.43;12.02;;;22.60;80.30;;;;;;6156666;28;89111;-66
2023/01/03 00:49:53;;;;;;;14.02;12.63;;;22.60;80.50;;;;;;6151064;28;89225;-66
2023/01/03 00:52:55;;;;;;;14.02;12.23;;;22.60;80.60;;;;;;6155873;28;88230;-66
2023/01/03 00:56:03;;;;;;;13.60;12.20;;;22.50;80.60;;;;;;6156277;28;89116;-65
2023/01/03 00:59:07;;;;;;;13.50;12.18;;;22.60;80.80;;;;;;6156919;28;88521;-66
2023/01/03 01:02:09;;;;;;;14.18;12.68;;;22.50;80.70;;;;;;6156452;28;88893;-66
2023/01/03 01:05:11;;;;;;;13.98;12.20;;;22.50;80.70;;;;;;6153037;28;88488;-66
2023/01/03 01:08:14;;;;;;;15.00;12.80;;;22.50;80.90;;;;;;6152024;28;90107;-66
2023/01/03 01:11:17;;;;;;;13.70;12.23;;;22.50;81.00;;;;;;6152642;28;89038;-66
2023/01/03 01:14:22;;;;;;;13.48;12.07;;;22.50;81.10;;;;;;6150360;28;89128;-68
2023/01/03 01:17:27;;;;;;;15.13;12.27;;;22.50;81.00;;;;;;6152365;28;89117;-65
2023/01/03 01:20:29;;;;;;;14.57;11.85;;;22.50;81.10;;;;;;6152488;28;89339;-66
2023/01/03 01:23:31;;;;;;;19.63;14.15;;;22.40;81.10;;;;;;6152942;28;88095;-66
2023/01/03 01:26:33;;;;;;;17.55;14.75;;;22.50;81.20;;;;;;6153009;28;89126;-66
2023/01/03 01:29:38;;;;;;;18.98;14.75;;;22.50;81.00;;;;;;6153087;28;88372;-66
2023/01/03 01:32:40;;;;;;;21.35;14.85;;;22.50;81.00;;;;;;6154758;28;89282;-66
2023/01/03 01:35:42;;;;;;;18.83;14.55;;;22.50;81.00;;;;;;6152462;28;89084;-66
2023/01/03 01:38:44;;;;;;;17.73;13.98;;;22.40;81.00;;;;;;6150119;28;89998;-66
2023/01/03 01:45:13;;;;;;;15.90;13.35;;;22.40;81.20;;;;;;6155333;28;87614;-66
2023/01/03 01:48:18;;;;;;;15.43;13.75;;;22.40;81.30;;;;;;6155627;28;89131;-66
2023/01/03 01:51:22;;;;;;;15.13;13.52;;;22.40;81.30;;;;;;6155442;28;89984;-65
2023/01/03 01:54:25;;;;;;;18.58;14.10;;;22.40;81.30;;;;;;6145940;28;87967;-66
2023/01/03 01:57:27;;;;;;;14.85;13.13;;;22.40;81.30;;;;;;6155542;28;89153;-66
2023/01/03 02:00:30;;;;;;;15.27;13.45;;;22.30;81.30;;;;;;6155506;28;88603;-66
2023/01/03 02:03:33;;;;;;;14.57;12.82;;;22.30;81.20;;;;;;6155574;28;89119;-66
2023/01/03 02:06:35;;;;;;;14.95;13.05;;;22.40;81.30;;;;;;6153729;28;89249;-66
2023/01/03 02:09:37;;;;;;;17.23;13.25;;;22.40;81.20;;;;;;6154397;28;90090;-66
2023/01/03 02:16:19;;;;;;;15.07;12.57;;;22.30;81.20;;;;;;6151303;28;87352;-66
2023/01/03 02:19:57;;;;;;;15.38;12.63;;;22.30;81.10;;;;;;6160126;28;89029;-66
2023/01/03 02:23:29;;;;;;;18.20;13.20;;;22.30;81.10;;;;;;6155517;28;87045;-65
2023/01/03 02:27:01;;;;;;;15.85;12.27;;;22.30;81.10;;;;;;6144796;28;89181;-66
2023/01/03 02:30:34;;;;;;;15.80;11.98;;;22.30;81.10;;;;;;6146236;28;89201;-66
2023/01/03 02:33:41;;;;;;;13.55;11.70;;;22.30;81.10;;;;;;6159681;28;88291;-66
2023/01/03 02:36:56;;;;;;;13.07;11.70;;;22.30;81.10;;;;;;6159847;28;88223;-66
2023/01/03 02:40:06;;;;;;;14.35;12.32;;;22.30;81.10;;;;;;6153321;28;89052;-66
2023/01/03 02:43:13;;;;;;;13.68;11.68;;;22.20;81.00;;;;;;6148434;28;90187;-66
2023/01/03 02:46:24;;;;;;;13.10;11.70;;;22.30;81.10;;;;;;6159634;28;89131;-65
2023/01/03 02:49:31;;;;;;;12.40;11.20;;;22.20;81.00;;;;;;6158301;28;89284;-66
2023/01/03 02:52:35;;;;;;;13.57;11.30;;;22.20;81.10;;;;;;6158121;28;89388;-66
2023/01/03 02:55:39;;;;;;;13.90;11.88;;;22.20;81.00;;;;;;6158681;28;89214;-66
2023/01/03 02:58:46;;;;;;;12.23;11.00;;;22.20;81.00;;;;;;6159157;28;89207;-66
2023/01/03 03:01:51;;;;;;;12.55;10.80;;;22.20;80.90;;;;;;6159406;28;87017;-66
2023/01/03 03:04:56;;;;;;;12.93;11.63;;;22.20;81.00;;;;;;6158750;28;88332;-66
2023/01/03 03:07:59;;;;;;;12.02;10.80;;;22.20;80.90;;;;;;6158256;28;89063;-66
2023/01/03 03:14:24;;;;;;;12.85;11.15;;;22.10;80.80;;;;;;6157754;28;88353;-66
2023/01/03 03:17:30;;;;;;;11.48;10.30;;;22.10;81.00;;;;;;6157199;28;89204;-65
2023/01/03 03:30:59;;;;;;;11.57;10.40;;;22.10;80.80;;;;;;6157085;28;87335;-66
2023/01/03 03:34:09;;;;;;;11.98;10.73;;;22.10;80.80;;;;;;6158425;28;89275;-65
2023/01/03 03:37:16;;;;;;;11.65;10.45;;;22.10;80.70;;;;;;6159854;28;88339;-66
2023/01/03 03:47:10;;;;;;;11.40;10.30;;;22.10;80.80;;;;;;6156486;28;90164;-66
2023/01/03 03:50:21;;;;;;;11.45;10.27;;;22.10;80.80;;;;;;6157724;28;89144;-66
2023/01/03 03:53:27;;;;;;;11.20;10.00;;;22.10;80.80;;;;;;6158253;28;89395;-66
2023/01/03 03:56:31;;;;;;;11.38;9.57;;;22.10;80.80;;;;;;6158251;28;89108;-66
2023/01/03 03:59:34;;;;;;;12.13;9.88;;;22.10;80.90;;;;;;6157851;28;89028;-66
2023/01/03 04:02:37;;;;;;;11.38;9.57;;;22.00;80.80;;;;;;6158381;28;89087;-66
2023/01/03 04:05:45;;;;;;;11.25;10.10;;;22.00;81.30;;;;;;6155698;28;88052;-66
2023/01/03 04:08:47;;;;;;;11.18;9.98;;;22.10;80.80;;;;;;6157634;28;87382;-65
2023/01/03 04:11:49;;;;;;;10.63;9.50;;;22.10;80.80;;;;;;6157935;28;89276;-67
2023/01/03 04:14:51;;;;;;;10.98;9.38;;;22.10;80.80;;;;;;6157729;28;89131;-69
2023/01/03 04:17:53;;;;;;;10.27;9.27;;;22.00;80.80;;;;;;6157848;28;90026;-68
2023/01/03 04:20:57;;;;;;;10.90;9.82;;;22.00;80.60;;;;;;6158179;28;88991;-68
2023/01/03 04:23:59;;;;;;;11.43;9.90;;;22.00;80.60;;;;;;6159151;28;89202;-68
2023/01/03 04:27:01;;;;;;;10.50;9.38;;;22.00;80.60;;;;;;6158339;28;89096;-69
2023/01/03 04:30:04;;;;;;;10.55;9.20;;;22.00;80.60;;;;;;6157627;28;89158;-68
2023/01/03 04:33:06;;;;;;;9.30;8.40;;;22.00;80.60;;;;;;6157746;28;89052;-68
2023/01/03 04:36:10;;;;;;;9.80;8.80;;;22.00;80.60;;;;;;6159036;28;89082;-69
2023/01/03 04:39:12;;;;;;;9.82;8.93;;;22.00;80.60;;;;;;6157878;28;88408;-68
2023/01/03 04:45:34;;;;;;;9.77;8.77;;;22.10;80.70;;;;;;6157871;28;87401;-66
2023/01/03 04:48:36;;;;;;;9.35;8.45;;;22.10;80.60;;;;;;6158228;28;89996;-66
2023/01/03 04:51:40;;;;;;;8.70;7.90;;;22.10;80.60;;;;;;6158619;28;89071;-65
2023/01/03 04:54:42;;;;;;;9.30;8.50;;;22.10;80.60;;;;;;6157345;28;87942;-66
2023/01/03 04:57:45;;;;;;;8.93;8.00;;;22.10;80.50;;;;;;6157898;28;89036;-66
2023/01/03 05:00:47;;;;;;;9.50;8.55;;;22.20;80.50;;;;;;6157081;28;89173;-66
2023/01/03 05:03:49;;;;;;;8.93;8.00;;;22.20;80.50;;;;;;6156515;28;89084;-66
2023/01/03 05:06:54;;;;;;;8.65;7.80;;;22.20;80.50;;;;;;6158290;28;89339;-66
2023/01/03 05:09:56;;;;;;;9.70;8.70;;;22.20;80.50;;;;;;6157910;28;88503;-66
2023/01/03 05:12:59;;;;;;;9.43;8.38;;;22.20;80.40;;;;;;6164101;28;89157;-66
2023/01/03 05:16:05;;;;;;;8.68;7.88;;;22.30;80.40;;;;;;6158121;28;89045;-66
2023/01/03 05:19:07;;;;;;;8.07;7.28;;;22.30;80.30;;;;;;6154221;28;90317;-66
2023/01/03 05:28:52;;;;;;;8.15;7.40;;;22.40;80.30;;;;;;6150352;28;87210;-66
2023/01/03 05:31:54;;;;;;;7.95;7.25;;;22.30;80.30;;;;;;6157857;28;89206;-67
2023/01/03 05:34:56;;;;;;;9.32;7.65;;;22.30;80.30;;;;;;6157071;28;89060;-66
2023/01/03 05:38:00;;;;;;;8.10;7.30;;;22.40;80.40;;;;;;6156948;28;89036;-66
2023/01/03 05:41:02;;;;;;;8.15;7.32;;;22.30;80.40;;;;;;6150063;28;88482;-67
2023/01/03 05:44:04;;;;;;;8.07;7.28;;;22.30;80.40;;;;;;6156518;28;89052;-66
2023/01/03 05:47:06;;;;;;;8.10;7.30;;;22.30;80.40;;;;;;6157254;28;89172;-67
2023/01/03 05:50:09;;;;;;;8.25;7.45;;;22.30;80.50;;;;;;6155823;28;90056;-66
2023/01/03 05:53:13;;;;;;;8.25;7.45;;;22.30;80.50;;;;;;6155980;28;89150;-67
2023/01/03 05:56:15;;;;;;;7.90;7.03;;;22.30;80.50;;;;;;6157087;28;88051;-66
2023/01/03 05:59:19;;;;;;;7.13;6.43;;;22.30;80.50;;;;;;6156232;28;89087;-66
2023/01/03 06:02:21;;;;;;;7.57;6.88;;;22.30;80.50;;;;;;6156156;28;89068;-66
2023/01/03 06:05:24;;;;;;;7.90;7.10;;;22.30;80.60;;;;;;6158353;28;89150;-66
2023/01/03 06:08:27;;;;;;;7.80;7.10;;;22.30;80.60;;;;;;6160848;28;89393;-67
2023/01/03 06:11:29;;;;;;;7.72;6.55;;;22.30;80.60;;;;;;6161097;28;88349;-66
2023/01/03 06:14:31;;;;;;;7.35;6.63;;;22.20;80.50;;;;;;6161145;28;89095;-67
2023/01/03 06:20:53;;;;;;;7.80;7.05;;;22.30;80.60;;;;;;6155823;28;88264;-67
2023/01/03 06:23:57;;;;;;;7.55;6.85;;;22.30;80.60;;;;;;6159725;28;89233;-67
2023/01/03 06:26:59;;;;;;;7.40;6.70;;;22.30;81.50;;;;;;6170618;28;89164;-67
2023/01/03 06:30:01;;;;;;;7.57;6.78;;;22.30;80.60;;;;;;6160447;28;89099;-66
2023/01/03 06:33:03;;;;;;;7.03;6.43;;;22.30;80.60;;;;;;6160117;28;88992;-67
2023/01/03 06:36:08;;;;;;;6.72;6.13;;;22.30;80.50;;;;;;6160170;28;89072;-67
2023/01/03 06:39:11;;;;;;;7.00;6.35;;;22.40;80.50;;;;;;6160519;28;89180;-67
2023/01/03 06:55:34;;;;;;;6.55;5.95;;;22.40;80.30;;;;;;6159601;28;87294;-67
2023/01/03 06:58:37;;;;;;;6.82;6.22;;;22.40;80.30;;;;;;6154714;28;89188;-67
2023/01/03 07:01:39;;;;;;;6.88;6.20;;;22.40;80.30;;;;;;6158284;28;89494;-67
2023/01/03 07:04:41;;;;;;;6.63;6.03;;;22.40;80.30;;;;;;6159119;28;89190;-67
2023/01/03 07:07:43;;;;;;;7.00;5.82;;;22.40;80.30;;;;;;6158543;28;89033;-67
2023/01/03 07:10:47;;;;;;;6.15;5.55;;;22.40;80.10;;;;;;6158769;28;89084;-67
2023/01/03 07:13:58;;;;;;;6.20;5.60;;;22.50;80.30;;;;;;6158977;28;88452;-66
2023/01/03 07:17:00;;;;;;;6.10;5.53;;;22.50;80.20;;;;;;6158536;28;87983;-66
2023/01/03 07:20:02;;;;;;;6.80;6.10;;;22.50;80.20;;;;;;6156146;28;89060;-67
2023/01/03 07:23:05;;;;;;;6.43;5.82;;;22.40;80.10;;;;;;6155185;28;90047;-67
2023/01/03 07:26:08;;;;;;;6.40;5.80;;;22.50;80.10;;;;;;6156305;28;88354;-67
2023/01/03 07:29:11;;;;;;;6.43;5.68;;;22.50;80.10;;;;;;6158744;28;89232;-67
2023/01/03 07:32:13;;;;;;;6.07;5.47;;;22.50;80.20;;;;;;6158843;28;87123;-67
2023/01/03 07:35:15;;;;;;;6.07;5.57;;;22.50;80.10;;;;;;6159203;28;89334;-68
2023/01/03 07:38:17;;;;;;;5.78;5.28;;;22.50;80.20;;;;;;6157262;28;89114;-68
2023/01/03 07:41:21;;;;;;;5.60;5.10;;;22.50;80.20;;;;;;6156546;28;89063;-68
2023/01/03 07:44:22;;;;;;;5.80;5.18;;;22.50;80.20;;;;;;6158753;28;87433;-68
2023/01/03 07:47:24;;;;;;;5.78;5.22;;;22.50;80.20;;;;;;6157882;28;89075;-67
2023/01/03 07:50:26;;;;;;;5.60;5.10;;;22.50;80.30;;;;;;6158530;28;89005;-68
2023/01/03 07:53:29;;;;;;;7.03;5.45;;;22.50;79.90;;;;;;6158362;28;89233;-70
2023/01/03 07:56:32;;;;;;;9.27;8.43;;;22.50;79.90;;;;;;6158427;28;89418;-69
2023/01/03 07:59:34;;;;;;;6.15;5.65;;;22.50;80.80;;;;;;6157659;28;89452;-69
2023/01/03 08:02:36;;;;;;;6.30;5.70;;;22.60;84.50;;;;;;6155866;28;89050;-69
2023/01/03 08:05:38;;;;;;;6.07;5.57;;;22.60;82.80;;;;;;6156519;28;89173;-67
2023/01/03 08:08:41;;;;;;;6.07;5.55;;;22.60;82.00;;;;;;6159505;28;89037;-68
2023/01/03 08:15:04;;;;;;;5.72;5.22;;;22.60;81.90;;;;;;6157845;28;86471;-68
2023/01/03 08:18:06;;;;;;;5.65;5.15;;;22.60;81.80;;;;;;6157178;28;89165;-68
2023/01/03 08:21:10;;;;;;;5.93;5.35;;;22.70;81.70;;;;;;6157635;28;89151;-67
2023/01/03 08:24:12;;;;;;;6.47;5.72;;;22.70;81.60;;;;;;6155534;28;90056;-68
2023/01/03 08:27:16;;;;;;;5.90;5.30;;;22.70;81.60;;;;;;6156079;28;89161;-67
2023/01/03 08:30:18;;;;;;;5.72;5.15;;;22.70;81.60;;;;;;6153378;28;89276;-68
2023/01/03 08:33:21;;;;;;;5.55;5.05;;;22.70;81.50;;;;;;6157695;28;87988;-68
2023/01/03 08:36:26;;;;;;;5.70;5.10;;;22.70;81.50;;;;;;6158345;28;89188;-68
2023/01/03 08:39:33;;;;;;;5.13;4.68;;;22.80;81.30;;;;;;6157518;28;89159;-68
2023/01/03 08:42:38;;;;;;;8.00;5.38;;;22.80;81.10;;;;;;6152936;28;89174;-66
2023/01/03 08:45:40;;;;;;;6.65;4.50;;;22.80;82.00;;;;;;6154846;28;88551;-67
2023/01/03 08:48:43;;;;;;;7.97;5.00;;;22.80;79.50;;;;;;6157657;28;87971;-68
2023/01/03 08:51:45;;;;;;;7.40;5.22;;;22.80;78.90;;;;;;6157835;28;89072;-67
2023/01/03 08:54:47;;;;;;;9.63;5.20;;;22.70;78.60;;;;;;6156602;28;90091;-67
2023/01/03 08:57:51;;;;;;;8.55;5.07;;;22.80;77.60;;;;;;6157449;28;89189;-67
2023/01/03 09:00:53;;;;;;;11.20;5.07;;;22.70;77.00;;;;;;6156247;28;89123;-67
2023/01/03 09:03:55;;;;;;;16.67;5.60;;;22.70;77.00;;;;;;6158078;28;89132;-67
2023/01/03 09:06:57;;;;;;;19.63;5.90;;;22.70;76.50;;;;;;6147676;28;89062;-67
2023/01/03 09:09:59;;;;;;;13.85;5.47;;;22.60;75.90;;;;;;6158236;28;87956;-68
2023/01/03 09:13:03;;;;;;;13.95;6.05;;;22.60;75.40;;;;;;6157478;28;89018;-67
2023/01/03 09:16:07;;;;;;;11.65;5.93;;;22.70;75.00;;;;;;6157822;28;88314;-68
2023/01/03 09:19:09;;;;;;;18.85;6.53;;;22.70;75.00;;;;;;6157714;28;88100;-68
2023/01/03 09:22:11;;;;;;;14.30;6.00;;;22.70;75.20;;;;;;6158539;28;90080;-67
2023/01/03 09:25:13;;;;;;;15.57;6.10;;;22.70;75.70;;;;;;6160019;28;88949;-69
2023/01/03 09:28:17;;;;;;;15.00;6.10;;;22.70;76.50;;;;;;6155968;28;89376;-69
2023/01/03 09:31:19;;;;;;;15.93;6.30;;;22.70;76.90;;;;;;6152819;28;88304;-70
2023/01/03 09:34:21;;;;;;;18.48;6.88;;;22.70;78.10;;;;;;6153805;28;88922;-69
2023/01/03 09:37:23;;;;;;;18.80;7.30;;;22.70;78.10;;;;;;6156328;28;88281;-69
2023/01/03 09:40:25;;;;;;;16.77;6.18;;;22.70;78.60;;;;;;6153692;28;89073;-70
2023/01/03 09:43:39;;;;;;;12.75;6.10;;;22.70;78.50;;;;;;6156280;28;89373;-70
2023/01/03 09:46:41;;;;;;;15.63;5.93;;;22.70;78.50;;;;;;6157491;28;87552;-68
2023/01/03 09:49:44;;;;;;;13.15;6.10;;;22.70;78.60;;;;;;6153555;28;88764;-68
2023/01/03 10:06:49;;;;;;;11.35;5.80;;;22.80;79.00;;;;;;6143417;28;87671;-69
2023/01/03 10:09:58;;;;;;;12.20;5.55;;;22.80;79.10;;;;;;6155559;28;89189;-69
2023/01/03 10:13:10;;;;;;;13.05;5.57;;;22.80;79.10;;;;;;6156721;28;89053;-69
2023/01/03 10:16:21;;;;;;;14.73;5.75;;;22.80;84.20;;;;;;6155665;28;89179;-69
2023/01/03 10:19:58;;;;;;;14.18;6.10;;;22.90;85.50;;;;;;6156161;28;88645;-70
2023/01/03 10:23:00;;;;;;;18.23;6.55;;;22.90;84.10;;;;;;6094903;28;89401;-69
2023/01/03 10:26:09;;;;;;;31.90;12.48;;;23.00;83.60;;;;;;6156107;28;89187;-69
2023/01/03 10:29:15;;;;;;;21.88;10.13;;;23.00;86.20;;;;;;6154700;28;90219;-70
2023/01/03 10:32:36;;;;;;;20.45;8.23;;;23.10;86.90;;;;;;6154575;28;88260;-70
2023/01/03 10:35:38;;;;;;;16.45;8.00;;;23.20;83.80;;;;;;6149143;28;87971;-69
2023/01/03 10:38:43;;;;;;;15.20;8.07;;;23.30;82.40;;;;;;6166106;28;87965;-69
2023/01/03 10:41:47;;;;;;;17.52;7.93;;;23.30;81.70;;;;;;6157114;28;90176;-69
2023/01/03 10:45:01;;;;;;;17.98;8.00;;;23.40;81.50;;;;;;6155211;28;87952;-70
2023/01/03 10:48:05;;;;;;;31.42;14.30;;;23.40;82.50;;;;;;6152819;28;89052;-70
2023/01/03 10:51:24;;;;;;;45.80;21.60;;;23.40;83.20;;;;;;6151517;28;88417;-70
2023/01/03 10:54:31;;;;;;;56.13;26.48;;;23.40;83.50;;;;;;6149774;28;88969;-70
2023/01/03 10:57:37;;;;;;;53.05;25.65;;;23.40;82.80;;;;;;6155904;28;89172;-70
2023/01/03 11:00:41;;;;;;;52.70;26.67;;;23.50;82.80;;;;;;6152578;28;89007;-69
2023/01/03 11:03:45;;;;;;;50.72;24.83;;;23.40;82.80;;;;;;6155549;28;89140;-71
2023/01/03 11:07:12;;;;;;;53.97;25.15;;;23.40;83.10;;;;;;6156515;28;88831;-71
2023/01/03 11:10:17;;;;;;;41.20;21.92;;;23.40;83.00;;;;;;6155092;28;88082;-71
2023/01/03 11:13:32;;;;;;;42.30;20.13;;;23.40;83.40;;;;;;6156578;28;89063;-70
2023/01/03 11:16:34;;;;;;;35.83;16.98;;;23.30;82.60;;;;;;6155637;28;89153;-70
2023/01/03 11:19:38;;;;;;;32.08;16.27;;;23.30;81.70;;;;;;6158159;28;89124;-70
2023/01/03 11:22:46;;;;;;;28.25;15.55;;;23.20;81.50;;;;;;6155098;28;88340;-70
2023/01/03 11:25:55;;;;;;;32.10;14.15;;;23.20;80.80;;;;;;6156969;28;89138;-70
2023/01/03 11:29:32;;;;;;;25.33;13.13;;;23.10;80.60;;;;;;6156331;28;89289;-70
2023/01/03 11:32:50;;;;;;;23.30;12.95;;;23.10;80.50;;;;;;6156810;28;89978;-70
2023/01/03 11:36:03;;;;;;;22.08;11.70;;;23.00;80.30;;;;;;6156147;28;89340;-70
2023/01/03 11:39:18;;;;;;;22.48;11.70;;;23.00;80.30;;;;;;6154517;28;88823;-70
2023/01/03 11:42:32;;;;;;;18.42;9.88;;;23.00;80.50;;;;;;6150634;28;89186;-70
2023/01/03 11:45:47;;;;;;;19.88;11.13;;;23.00;79.30;;;;;;6154616;28;89052;-69
2023/01/03 11:49:03;;;;;;;19.98;11.43;;;23.00;79.60;;;;;;6153642;28;89092;-70
2023/01/03 11:52:22;;;;;;;18.40;10.52;;;23.00;80.60;;;;;;6154455;28;88914;-69
2023/01/03 11:55:50;;;;;;;17.42;10.30;;;23.00;80.80;;;;;;6154162;28;88703;-68
2023/01/03 11:59:03;;;;;;;17.40;9.75;;;23.00;81.10;;;;;;6154341;28;89239;-70
2023/01/03 12:02:35;;;;;;;17.58;10.48;;;23.10;81.50;;;;;;6154279;28;89080;-69
2023/01/03 12:05:46;;;;;;;20.42;10.30;;;23.10;81.60;;;;;;6154919;28;90152;-69
2023/01/03 12:09:01;;;;;;;20.33;10.13;;;23.10;81.80;;;;;;6157239;28;88953;-69
2023/01/03 12:12:19;;;;;;;20.70;9.95;;;23.10;81.90;;;;;;6157217;28;89075;-69
2023/01/03 12:15:24;;;;;;;22.10;10.07;;;23.10;82.10;;;;;;6151836;28;89205;-69
2023/01/03 12:18:34;;;;;;;20.40;9.23;;;23.10;82.40;;;;;;6157093;28;89466;-69
2023/01/03 12:21:37;;;;;;;24.70;9.85;;;23.10;83.00;;;;;;6155888;28;89087;-68
2023/01/03 12:24:49;;;;;;;22.60;9.75;;;23.20;83.30;;;;;;6157611;28;89170;-70
2023/01/03 12:27:56;;;;;;;23.05;10.07;;;23.10;83.20;;;;;;6158412;28;88979;-71
2023/01/03 12:31:03;;;;;;;20.67;9.43;;;23.10;83.10;;;;;;6153741;28;89117;-68
2023/01/03 12:34:17;;;;;;;24.13;10.20;;;23.10;83.10;;;;;;6156948;28;89146;-69
2023/01/03 12:37:23;;;;;;;20.77;9.18;;;23.10;83.80;;;;;;6156401;28;90184;-69
2023/01/03 12:40:38;;;;;;;25.45;9.75;;;23.20;84.00;;;;;;6149974;28;87917;-68
2023/01/03 12:43:45;;;;;;;20.48;8.88;;;23.10;83.80;;;;;;6157126;28;89104;-69
2023/01/03 12:46:51;;;;;;;18.85;8.57;;;23.10;83.70;;;;;;6157022;28;89180;-69
2023/01/03 12:50:01;;;;;;;18.83;8.48;;;23.20;83.70;;;;;;6158134;28;89195;-69
2023/01/03 12:53:11;;;;;;;19.58;8.52;;;23.20;83.60;;;;;;6156814;28;89059;-68
2023/01/03 12:56:54;;;;;;;16.60;8.57;;;23.20;83.50;;;;;;6157614;28;89257;-69
2023/01/03 13:00:13;;;;;;;17.77;8.20;;;23.20;83.50;;;;;;6157573;28;87236;-69
2023/01/03 13:03:21;;;;;;;16.98;8.10;;;23.20;83.50;;;;;;6157125;28;89094;-69
2023/01/03 13:06:28;;;;;;;18.90;8.15;;;23.20;83.40;;;;;;6157337;28;87891;-69
2023/01/03 13:09:35;;;;;;;19.92;8.07;;;23.20;83.40;;;;;;6155917;28;89986;-68
2023/01/03 13:12:43;;;;;;;16.38;7.88;;;23.20;83.40;;;;;;6156814;28;88793;-69
2023/01/03 13:15:47;;;;;;;13.55;7.40;;;23.20;83.40;;;;;;6156014;28;89324;-68
2023/01/03 13:18:49;;;;;;;16.17;7.60;;;23.20;83.50;;;;;;6156641;28;88241;-68
2023/01/03 13:22:02;;;;;;;16.85;8.25;;;23.10;83.30;;;;;;6153499;28;89335;-68
2023/01/03 13:25:30;;;;;;;18.45;7.68;;;23.10;83.30;;;;;;6156384;28;89138;-69
2023/01/03 13:28:35;;;;;;;14.40;6.97;;;23.20;83.50;;;;;;6150344;28;89061;-68
2023/01/03 13:31:39;;;;;;;13.05;7.18;;;23.10;83.50;;;;;;6154303;28;88364;-70
2023/01/03 13:34:41;;;;;;;14.85;7.20;;;23.10;83.50;;;;;;6154167;28;89105;-68
2023/01/03 13:37:45;;;;;;;13.13;7.10;;;23.20;83.70;;;;;;6153756;28;89119;-69
2023/01/03 13:40:48;;;;;;;12.52;6.68;;;23.20;83.70;;;;;;6150667;28;90009;-69
2023/01/03 13:43:54;;;;;;;11.68;6.43;;;23.10;83.60;;;;;;6153107;28;89143;-69
2023/01/03 13:46:56;;;;;;;13.10;6.78;;;23.10;83.70;;;;;;6148178;28;88044;-69
2023/01/03 13:49:58;;;;;;;18.15;7.95;;;23.10;83.80;;;;;;6153871;28;89242;-68
2023/01/03 13:53:02;;;;;;;15.63;7.07;;;23.10;84.90;;;;;;6154518;28;89259;-68
2023/01/03 13:56:20;;;;;;;16.05;7.47;;;23.20;84.60;;;;;;6153836;28;90046;-66
2023/01/03 13:59:29;;;;;;;13.18;7.10;;;23.20;85.50;;;;;;6150961;28;89144;-66
2023/01/03 14:02:58;;;;;;;16.23;7.20;;;23.30;85.70;;;;;;6153461;28;88274;-66
2023/01/03 14:06:23;;;;;;;13.77;7.22;;;23.30;85.00;;;;;;6153171;28;88963;-69
2023/01/03 14:09:50;;;;;;;14.63;6.88;;;23.40;84.70;;;;;;6153163;28;89211;-69
2023/01/03 14:13:22;;;;;;;13.40;7.25;;;23.70;83.50;;;;;;6151506;28;89091;-69
2023/01/03 14:16:29;;;;;;;12.18;6.50;;;23.90;82.70;;;;;;6143544;28;89247;-69
2023/01/03 14:19:34;;;;;;;15.07;6.68;;;23.90;82.20;;;;;;6146507;28;89170;-69
2023/01/03 14:22:42;;;;;;;16.70;6.75;;;23.90;82.00;;;;;;6152407;28;88128;-68
2023/01/03 14:25:45;;;;;;;12.10;6.45;;;23.90;81.90;;;;;;6153923;28;88977;-69
2023/01/03 14:28:49;;;;;;;10.85;5.75;;;23.80;82.10;;;;;;6158492;28;89460;-69
2023/01/03 14:31:56;;;;;;;9.73;6.20;;;23.90;82.20;;;;;;6156201;28;89580;-69
2023/01/03 14:34:58;;;;;;;10.82;5.90;;;23.90;82.00;;;;;;6156452;28;88879;-68
2023/01/03 14:38:00;;;;;;;9.73;5.97;;;23.90;82.00;;;;;;6157600;28;87993;-69
2023/01/03 14:41:03;;;;;;;10.68;6.13;;;23.80;81.70;;;;;;6156950;28;89395;-69
2023/01/03 14:44:07;;;;;;;10.57;6.35;;;23.80;81.80;;;;;;6157091;28;90026;-68
2023/01/03 14:47:17;;;;;;;9.57;5.82;;;23.80;81.70;;;;;;6157180;28;88127;-70
2023/01/03 14:50:25;;;;;;;11.68;6.00;;;23.80;81.70;;;;;;6157011;28;89052;-68
2023/01/03 14:53:28;;;;;;;10.52;6.07;;;23.70;81.60;;;;;;6156953;28;89362;-68
2023/01/03 14:56:30;;;;;;;11.07;5.72;;;23.70;81.60;;;;;;6156871;28;88855;-68
2023/01/03 14:59:33;;;;;;;10.60;5.22;;;23.70;81.80;;;;;;6155841;28;89371;-69
2023/01/03 15:02:39;;;;;;;10.80;5.35;;;23.60;81.90;;;;;;6152860;28;88875;-68
2023/01/03 15:05:42;;;;;;;10.48;5.15;;;23.60;82.20;;;;;;6160144;28;87242;-69
2023/01/03 15:08:45;;;;;;;10.63;5.20;;;23.60;82.30;;;;;;6158389;28;88940;-68
2023/01/03 15:11:59;;;;;;;10.10;5.40;;;23.50;82.50;;;;;;6158643;28;87991;-72
2023/01/03 15:15:09;;;;;;;12.93;5.53;;;23.50;82.70;;;;;;6155158;28;90088;-69
2023/01/03 15:18:13;;;;;;;9.48;5.13;;;23.50;82.70;;;;;;6166236;28;88321;-69
2023/01/03 15:21:20;;;;;;;12.93;5.05;;;23.50;82.70;;;;;;6160407;28;88886;-69
2023/01/03 15:24:23;;;;;;;11.45;5.25;;;23.50;82.90;;;;;;6152112;28;88864;-69
2023/01/03 15:27:33;;;;;;;12.00;5.60;;;23.50;82.90;;;;;;6158185;28;89136;-68
2023/01/03 15:30:46;;;;;;;10.65;5.30;;;23.40;82.80;;;;;;6159866;28;89041;-69
2023/01/03 15:34:00;;;;;;;9.52;5.05;;;23.40;82.80;;;;;;6159373;28;90193;-69
2023/01/03 15:37:05;;;;;;;12.27;5.30;;;23.40;82.80;;;;;;6159464;28;88612;-69
2023/01/03 15:40:13;;;;;;;9.02;4.60;;;23.30;82.70;;;;;;6153149;28;89006;-70
2023/01/03 15:43:20;;;;;;;10.30;4.75;;;23.40;82.80;;;;;;6157107;28;89215;-69
2023/01/03 15:46:23;;;;;;;8.57;4.80;;;23.30;82.80;;;;;;6158552;28;89762;-69
2023/01/03 15:49:28;;;;;;;8.98;4.90;;;23.30;82.80;;;;;;6158617;28;89368;-69
2023/01/03 15:52:30;;;;;;;6.95;4.18;;;23.20;82.70;;;;;;6158325;28;89322;-70
2023/01/03 15:55:32;;;;;;;7.68;4.22;;;23.30;82.70;;;;;;6158330;28;88855;-69
2023/01/03 15:58:37;;;;;;;10.05;4.60;;;23.20;82.70;;;;;;6159545;28;88973;-69
2023/01/03 16:01:39;;;;;;;8.02;4.10;;;23.20;82.70;;;;;;6156965;28;89599;-69
2023/01/03 16:04:42;;;;;;;9.80;5.00;;;23.20;82.80;;;;;;6154516;28;90603;-69
2023/01/03 16:07:44;;;;;;;11.23;4.93;;;23.20;82.70;;;;;;6158222;28;88349;-69
2023/01/03 16:10:46;;;;;;;8.20;4.45;;;23.20;82.70;;;;;;6157408;28;89068;-69
2023/01/03 16:13:51;;;;;;;11.40;4.43;;;23.10;82.50;;;;;;6160556;28;89099;-69
2023/01/03 16:16:55;;;;;;;7.97;4.40;;;23.20;82.50;;;;;;6156856;28;90122;-69
2023/01/03 16:20:00;;;;;;;7.93;4.60;;;23.20;82.50;;;;;;6156499;28;89145;-69
2023/01/03 16:23:02;;;;;;;7.88;4.25;;;23.10;82.50;;;;;;6156884;28;89039;-68
2023/01/03 16:26:04;;;;;;;7.50;4.20;;;23.10;82.40;;;;;;6156872;28;89110;-70
2023/01/03 16:29:06;;;;;;;7.57;4.47;;;23.20;83.30;;;;;;6157439;28;89075;-69
2023/01/03 16:32:18;;;;;;;7.95;4.22;;;23.10;82.40;;;;;;6157810;28;89103;-70
2023/01/03 16:35:22;;;;;;;5.63;3.63;;;23.10;82.40;;;;;;6156596;28;89428;-69
2023/01/03 16:38:24;;;;;;;7.07;4.50;;;23.10;82.30;;;;;;6154327;28;88469;-70
2023/01/03 16:41:27;;;;;;;6.65;4.20;;;23.10;82.30;;;;;;6156844;28;87975;-69
2023/01/03 16:44:29;;;;;;;8.13;4.18;;;23.10;82.20;;;;;;6157114;28;89202;-69
2023/01/03 16:47:34;;;;;;;6.47;4.00;;;23.10;82.20;;;;;;6156890;28;89962;-70
2023/01/03 16:50:40;;;;;;;6.95;4.03;;;23.10;82.10;;;;;;6157700;28;89292;-70
2023/01/03 16:53:42;;;;;;;6.43;4.15;;;23.10;82.00;;;;;;6157443;28;89180;-69
2023/01/03 16:56:44;;;;;;;7.40;4.00;;;23.10;82.00;;;;;;6158449;28;89183;-69
2023/01/03 16:59:47;;;;;;;6.93;4.15;;;23.10;82.00;;;;;;6157239;28;89095;-69
2023/01/03 17:02:50;;;;;;;6.72;3.85;;;23.10;82.30;;;;;;6157501;28;89478;-69
2023/01/03 17:05:53;;;;;;;5.82;3.72;;;23.10;82.50;;;;;;6156942;28;87986;-68
2023/01/03 17:08:57;;;;;;;5.38;4.00;;;23.20;82.70;;;;;;6154143;28;88395;-70